sensor_id;sensor_type;location;lat;lon;timestamp;P1;durP1;ratioP1;P2;durP2;ratioP2
32748;SDS011;19119;52.474;13.710;2022-07-22T00:02:05;8.70;;;7.68;;
32748;SDS011;19119;52.474;13.710;2022-07-22T00:04:30;10.10;;;7.65;;
32748;SDS011;19119;52.474;13.710;2022-07-22T00:06:56;12.73;;;7.75;;
32748;SDS011;19119;52.474;13.710;2022-07-22T00:09:22;10.77;;;7.22;;
32748;SDS011;19119;52.474;13.710;2022-07-22T00:11:47;10.32;;;7.80;;
32748;SDS011;19119;52.474;13.710;2022-07-22T00:14:13;8.60;;;7.28;;
32748;SDS011;19119;52.474;13.710;2022-07-22T00:16:38;8.63;;;7.55;;
32748;SDS011;19119;52.474;13.710;2022-07-22T00:19:04;10.90;;;8.27;;
32748;SDS011;19119;52.474;13.710;2022-07-22T00:21:29;8.73;;;7.63;;
32748;SDS011;19119;52.474;13.710;2022-07-22T00:23:55;8.73;;;7.15;;
32748;SDS011;19119;52.474;13.710;2022-07-22T00:26:20;8.73;;;7.82;;
32748;SDS011;19119;52.474;13.710;2022-07-22T00:28:46;11.30;;;7.53;;
32748;SDS011;19119;52.474;13.710;2022-07-22T00:31:12;9.70;;;7.55;;
32748;SDS011;19119;52.474;13.710;2022-07-22T00:33:37;10.55;;;7.53;;
32748;SDS011;19119;52.474;13.710;2022-07-22T00:36:03;9.70;;;7.30;;
32748;SDS011;19119;52.474;13.710;2022-07-22T00:38:29;8.70;;;7.47;;
32748;SDS011;19119;52.474;13.710;2022-07-22T00:40:54;8.52;;;6.90;;
32748;SDS011;19119;52.474;13.710;2022-07-22T00:43:20;8.82;;;7.90;;
32748;SDS011;19119;52.474;13.710;2022-07-22T00:45:45;8.80;;;7.47;;
32748;SDS011;19119;52.474;13.710;2022-07-22T00:48:11;9.85;;;7.10;;
32748;SDS011;19119;52.474;13.710;2022-07-22T00:50:36;9.15;;;7.80;;
32748;SDS011;19119;52.474;13.710;2022-07-22T00:53:02;8.82;;;7.25;;
32748;SDS011;19119;52.474;13.710;2022-07-22T00:55:28;7.95;;;6.60;;
32748;SDS011;19119;52.474;13.710;2022-07-22T00:57:54;10.57;;;7.28;;
32748;SDS011;19119;52.474;13.710;2022-07-22T01:00:20;8.77;;;7.10;;
32748;SDS011;19119;52.474;13.710;2022-07-22T01:02:47;8.75;;;7.18;;
32748;SDS011;19119;52.474;13.710;2022-07-22T01:05:12;8.10;;;6.47;;
32748;SDS011;19119;52.474;13.710;2022-07-22T01:07:38;9.10;;;7.30;;
32748;SDS011;19119;52.474;13.710;2022-07-22T01:10:05;9.63;;;6.88;;
32748;SDS011;19119;52.474;13.710;2022-07-22T01:12:31;8.65;;;6.80;;
32748;SDS011;19119;52.474;13.710;2022-07-22T01:14:57;7.72;;;5.90;;
32748;SDS011;19119;52.474;13.710;2022-07-22T01:17:22;8.57;;;6.43;;
32748;SDS011;19119;52.474;13.710;2022-07-22T01:19:48;9.40;;;6.50;;
32748;SDS011;19119;52.474;13.710;2022-07-22T01:22:14;9.75;;;6.95;;
32748;SDS011;19119;52.474;13.710;2022-07-22T01:24:40;7.18;;;6.47;;
32748;SDS011;19119;52.474;13.710;2022-07-22T01:27:06;8.55;;;5.90;;
32748;SDS011;19119;52.474;13.710;2022-07-22T01:29:31;9.88;;;6.80;;
32748;SDS011;19119;52.474;13.710;2022-07-22T01:31:57;8.38;;;6.47;;
32748;SDS011;19119;52.474;13.710;2022-07-22T01:34:23;7.03;;;6.32;;
32748;SDS011;19119;52.474;13.710;2022-07-22T01:36:49;8.05;;;6.38;;
32748;SDS011;19119;52.474;13.710;2022-07-22T01:39:14;9.88;;;6.18;;
32748;SDS011;19119;52.474;13.710;2022-07-22T01:41:40;7.97;;;6.72;;
32748;SDS011;19119;52.474;13.710;2022-07-22T01:44:06;8.02;;;6.15;;
32748;SDS011;19119;52.474;13.710;2022-07-22T01:46:31;6.65;;;5.63;;
32748;SDS011;19119;52.474;13.710;2022-07-22T01:48:57;10.27;;;6.32;;
32748;SDS011;19119;52.474;13.710;2022-07-22T01:51:23;8.52;;;6.30;;
32748;SDS011;19119;52.474;13.710;2022-07-22T01:53:48;7.40;;;5.50;;
32748;SDS011;19119;52.474;13.710;2022-07-22T01:56:14;7.18;;;5.30;;
32748;SDS011;19119;52.474;13.710;2022-07-22T01:58:40;8.10;;;5.93;;
32748;SDS011;19119;52.474;13.710;2022-07-22T02:01:06;7.93;;;6.15;;
32748;SDS011;19119;52.474;13.710;2022-07-22T02:03:32;9.35;;;5.75;;
32748;SDS011;19119;52.474;13.710;2022-07-22T02:05:58;6.65;;;5.80;;
32748;SDS011;19119;52.474;13.710;2022-07-22T02:08:24;6.47;;;5.55;;
32748;SDS011;19119;52.474;13.710;2022-07-22T02:10:49;7.60;;;5.65;;
32748;SDS011;19119;52.474;13.710;2022-07-22T02:13:15;8.70;;;5.80;;
32748;SDS011;19119;52.474;13.710;2022-07-22T02:15:40;7.53;;;5.57;;
32748;SDS011;19119;52.474;13.710;2022-07-22T02:18:10;7.25;;;5.97;;
32748;SDS011;19119;52.474;13.710;2022-07-22T02:20:36;8.00;;;5.85;;
32748;SDS011;19119;52.474;13.710;2022-07-22T02:23:02;8.60;;;4.80;;
32748;SDS011;19119;52.474;13.710;2022-07-22T02:25:28;9.27;;;5.57;;
32748;SDS011;19119;52.474;13.710;2022-07-22T02:27:53;10.98;;;5.90;;
32748;SDS011;19119;52.474;13.710;2022-07-22T02:30:19;7.28;;;5.75;;
32748;SDS011;19119;52.474;13.710;2022-07-22T02:32:44;7.18;;;5.28;;
32748;SDS011;19119;52.474;13.710;2022-07-22T02:35:10;6.63;;;5.22;;
32748;SDS011;19119;52.474;13.710;2022-07-22T02:37:35;7.30;;;5.13;;
32748;SDS011;19119;52.474;13.710;2022-07-22T02:40:02;5.95;;;5.35;;
32748;SDS011;19119;52.474;13.710;2022-07-22T02:42:29;7.40;;;5.40;;
32748;SDS011;19119;52.474;13.710;2022-07-22T02:44:55;6.82;;;5.22;;
32748;SDS011;19119;52.474;13.710;2022-07-22T02:47:20;7.07;;;5.47;;
32748;SDS011;19119;52.474;13.710;2022-07-22T02:49:46;7.80;;;5.65;;
32748;SDS011;19119;52.474;13.710;2022-07-22T02:52:12;6.70;;;5.00;;
32748;SDS011;19119;52.474;13.710;2022-07-22T02:54:38;7.10;;;5.93;;
32748;SDS011;19119;52.474;13.710;2022-07-22T02:57:03;8.45;;;5.40;;
32748;SDS011;19119;52.474;13.710;2022-07-22T02:59:29;6.47;;;5.20;;
32748;SDS011;19119;52.474;13.710;2022-07-22T03:01:54;7.35;;;5.60;;
32748;SDS011;19119;52.474;13.710;2022-07-22T03:04:20;6.60;;;5.75;;
32748;SDS011;19119;52.474;13.710;2022-07-22T03:06:45;6.18;;;5.25;;
32748;SDS011;19119;52.474;13.710;2022-07-22T03:09:11;6.53;;;5.10;;
32748;SDS011;19119;52.474;13.710;2022-07-22T03:11:36;7.38;;;5.32;;
32748;SDS011;19119;52.474;13.710;2022-07-22T03:14:02;6.70;;;5.40;;
32748;SDS011;19119;52.474;13.710;2022-07-22T03:16:27;7.30;;;6.03;;
32748;SDS011;19119;52.474;13.710;2022-07-22T03:18:53;9.65;;;5.32;;
32748;SDS011;19119;52.474;13.710;2022-07-22T03:21:18;7.25;;;5.57;;
32748;SDS011;19119;52.474;13.710;2022-07-22T03:23:44;8.05;;;5.70;;
32748;SDS011;19119;52.474;13.710;2022-07-22T03:26:09;6.30;;;5.70;;
32748;SDS011;19119;52.474;13.710;2022-07-22T03:28:35;11.38;;;6.32;;
32748;SDS011;19119;52.474;13.710;2022-07-22T03:31:00;9.07;;;5.45;;
32748;SDS011;19119;52.474;13.710;2022-07-22T03:33:26;6.38;;;5.50;;
32748;SDS011;19119;52.474;13.710;2022-07-22T03:35:51;8.98;;;5.75;;
32748;SDS011;19119;52.474;13.710;2022-07-22T03:38:17;6.85;;;6.15;;
32748;SDS011;19119;52.474;13.710;2022-07-22T03:40:42;7.55;;;5.60;;
32748;SDS011;19119;52.474;13.710;2022-07-22T03:43:08;7.97;;;6.05;;
32748;SDS011;19119;52.474;13.710;2022-07-22T03:45:33;9.85;;;6.22;;
32748;SDS011;19119;52.474;13.710;2022-07-22T03:47:59;6.95;;;6.20;;
32748;SDS011;19119;52.474;13.710;2022-07-22T03:50:25;10.10;;;6.40;;
32748;SDS011;19119;52.474;13.710;2022-07-22T03:52:50;12.95;;;6.65;;
32748;SDS011;19119;52.474;13.710;2022-07-22T03:55:16;7.53;;;6.53;;
32748;SDS011;19119;52.474;13.710;2022-07-22T03:57:41;8.38;;;5.90;;
32748;SDS011;19119;52.474;13.710;2022-07-22T04:00:07;9.18;;;6.57;;
32748;SDS011;19119;52.474;13.710;2022-07-22T04:02:33;8.48;;;6.63;;
32748;SDS011;19119;52.474;13.710;2022-07-22T04:04:59;8.73;;;6.35;;
32748;SDS011;19119;52.474;13.710;2022-07-22T04:07:24;8.93;;;6.80;;
32748;SDS011;19119;52.474;13.710;2022-07-22T04:09:50;7.70;;;6.50;;
32748;SDS011;19119;52.474;13.710;2022-07-22T04:12:15;10.88;;;7.07;;
32748;SDS011;19119;52.474;13.710;2022-07-22T04:14:41;9.55;;;7.00;;
32748;SDS011;19119;52.474;13.710;2022-07-22T04:17:06;8.10;;;6.70;;
32748;SDS011;19119;52.474;13.710;2022-07-22T04:19:32;11.13;;;7.25;;
32748;SDS011;19119;52.474;13.710;2022-07-22T04:21:58;9.68;;;7.07;;
32748;SDS011;19119;52.474;13.710;2022-07-22T04:24:23;9.57;;;7.32;;
32748;SDS011;19119;52.474;13.710;2022-07-22T04:26:49;9.20;;;6.65;;
32748;SDS011;19119;52.474;13.710;2022-07-22T04:29:14;8.25;;;7.18;;
32748;SDS011;19119;52.474;13.710;2022-07-22T04:31:40;8.68;;;6.60;;
32748;SDS011;19119;52.474;13.710;2022-07-22T04:34:05;10.02;;;7.65;;
32748;SDS011;19119;52.474;13.710;2022-07-22T04:36:31;9.45;;;7.60;;
32748;SDS011;19119;52.474;13.710;2022-07-22T04:38:56;9.45;;;7.38;;
32748;SDS011;19119;52.474;13.710;2022-07-22T04:41:22;10.68;;;7.28;;
32748;SDS011;19119;52.474;13.710;2022-07-22T04:43:47;10.07;;;7.18;;
32748;SDS011;19119;52.474;13.710;2022-07-22T04:46:13;9.88;;;7.18;;
32748;SDS011;19119;52.474;13.710;2022-07-22T04:48:39;9.07;;;7.00;;
32748;SDS011;19119;52.474;13.710;2022-07-22T04:51:04;10.45;;;7.47;;
32748;SDS011;19119;52.474;13.710;2022-07-22T04:53:30;7.88;;;6.93;;
32748;SDS011;19119;52.474;13.710;2022-07-22T04:55:55;8.27;;;6.38;;
32748;SDS011;19119;52.474;13.710;2022-07-22T04:58:21;8.25;;;6.38;;
32748;SDS011;19119;52.474;13.710;2022-07-22T05:00:47;9.10;;;6.82;;
32748;SDS011;19119;52.474;13.710;2022-07-22T05:03:12;8.80;;;6.40;;
32748;SDS011;19119;52.474;13.710;2022-07-22T05:05:38;6.60;;;5.85;;
32748;SDS011;19119;52.474;13.710;2022-07-22T05:08:04;10.35;;;5.53;;
32748;SDS011;19119;52.474;13.710;2022-07-22T05:10:30;7.75;;;6.18;;
32748;SDS011;19119;52.474;13.710;2022-07-22T05:12:56;9.15;;;6.53;;
32748;SDS011;19119;52.474;13.710;2022-07-22T05:15:22;10.30;;;6.15;;
32748;SDS011;19119;52.474;13.710;2022-07-22T05:17:47;16.92;;;6.75;;
32748;SDS011;19119;52.474;13.710;2022-07-22T05:20:13;9.80;;;7.05;;
32748;SDS011;19119;52.474;13.710;2022-07-22T05:22:38;9.30;;;6.95;;
32748;SDS011;19119;52.474;13.710;2022-07-22T05:25:04;11.57;;;8.65;;
32748;SDS011;19119;52.474;13.710;2022-07-22T05:27:30;10.93;;;7.95;;
32748;SDS011;19119;52.474;13.710;2022-07-22T05:29:56;11.80;;;7.80;;
32748;SDS011;19119;52.474;13.710;2022-07-22T05:32:22;10.48;;;7.93;;
32748;SDS011;19119;52.474;13.710;2022-07-22T05:34:47;9.90;;;8.52;;
32748;SDS011;19119;52.474;13.710;2022-07-22T05:37:13;10.60;;;7.72;;
32748;SDS011;19119;52.474;13.710;2022-07-22T05:39:40;9.73;;;7.75;;
32748;SDS011;19119;52.474;13.710;2022-07-22T05:42:07;10.40;;;8.45;;
32748;SDS011;19119;52.474;13.710;2022-07-22T05:44:32;13.32;;;8.95;;
32748;SDS011;19119;52.474;13.710;2022-07-22T05:46:58;11.93;;;9.35;;
32748;SDS011;19119;52.474;13.710;2022-07-22T05:49:23;12.52;;;9.20;;
32748;SDS011;19119;52.474;13.710;2022-07-22T05:51:51;11.10;;;8.75;;
32748;SDS011;19119;52.474;13.710;2022-07-22T05:54:17;11.77;;;8.73;;
32748;SDS011;19119;52.474;13.710;2022-07-22T05:56:43;14.02;;;9.23;;
32748;SDS011;19119;52.474;13.710;2022-07-22T05:59:08;13.07;;;9.02;;
32748;SDS011;19119;52.474;13.710;2022-07-22T06:01:34;11.82;;;8.88;;
32748;SDS011;19119;52.474;13.710;2022-07-22T06:03:59;13.55;;;10.15;;
32748;SDS011;19119;52.474;13.710;2022-07-22T06:06:24;12.25;;;9.07;;
32748;SDS011;19119;52.474;13.710;2022-07-22T06:08:50;12.40;;;8.05;;
32748;SDS011;19119;52.474;13.710;2022-07-22T06:11:15;10.20;;;8.30;;
32748;SDS011;19119;52.474;13.710;2022-07-22T06:13:41;10.35;;;8.38;;
32748;SDS011;19119;52.474;13.710;2022-07-22T06:16:07;15.85;;;9.77;;
32748;SDS011;19119;52.474;13.710;2022-07-22T06:18:32;9.85;;;8.00;;
32748;SDS011;19119;52.474;13.710;2022-07-22T06:20:58;13.70;;;10.18;;
32748;SDS011;19119;52.474;13.710;2022-07-22T06:23:23;9.98;;;8.35;;
32748;SDS011;19119;52.474;13.710;2022-07-22T06:25:49;10.82;;;7.95;;
32748;SDS011;19119;52.474;13.710;2022-07-22T06:28:14;10.70;;;8.57;;
32748;SDS011;19119;52.474;13.710;2022-07-22T06:30:40;9.95;;;8.60;;
32748;SDS011;19119;52.474;13.710;2022-07-22T06:33:06;13.27;;;9.23;;
32748;SDS011;19119;52.474;13.710;2022-07-22T06:35:32;11.27;;;8.48;;
32748;SDS011;19119;52.474;13.710;2022-07-22T06:37:58;12.85;;;8.43;;
32748;SDS011;19119;52.474;13.710;2022-07-22T06:40:23;12.73;;;9.48;;
32748;SDS011;19119;52.474;13.710;2022-07-22T06:42:49;13.27;;;8.32;;
32748;SDS011;19119;52.474;13.710;2022-07-22T06:45:14;10.80;;;8.70;;
32748;SDS011;19119;52.474;13.710;2022-07-22T06:47:40;11.18;;;9.23;;
32748;SDS011;19119;52.474;13.710;2022-07-22T06:50:06;10.65;;;9.27;;
32748;SDS011;19119;52.474;13.710;2022-07-22T06:52:33;10.80;;;9.63;;
32748;SDS011;19119;52.474;13.710;2022-07-22T06:54:58;9.55;;;8.30;;
32748;SDS011;19119;52.474;13.710;2022-07-22T06:57:24;9.68;;;8.55;;
32748;SDS011;19119;52.474;13.710;2022-07-22T06:59:49;13.60;;;9.98;;
32748;SDS011;19119;52.474;13.710;2022-07-22T07:02:15;9.80;;;7.60;;
32748;SDS011;19119;52.474;13.710;2022-07-22T07:04:41;12.38;;;8.45;;
32748;SDS011;19119;52.474;13.710;2022-07-22T07:07:07;10.07;;;8.77;;
32748;SDS011;19119;52.474;13.710;2022-07-22T07:09:33;11.23;;;9.00;;
32748;SDS011;19119;52.474;13.710;2022-07-22T07:11:59;13.75;;;9.60;;
32748;SDS011;19119;52.474;13.710;2022-07-22T07:14:24;9.32;;;7.78;;
32748;SDS011;19119;52.474;13.710;2022-07-22T07:16:50;10.52;;;8.55;;
32748;SDS011;19119;52.474;13.710;2022-07-22T07:19:15;10.50;;;8.32;;
32748;SDS011;19119;52.474;13.710;2022-07-22T07:21:41;14.70;;;8.75;;
32748;SDS011;19119;52.474;13.710;2022-07-22T07:24:06;10.20;;;8.32;;
32748;SDS011;19119;52.474;13.710;2022-07-22T07:26:32;11.27;;;8.43;;
32748;SDS011;19119;52.474;13.710;2022-07-22T07:28:57;11.30;;;9.23;;
32748;SDS011;19119;52.474;13.710;2022-07-22T07:31:23;10.00;;;7.88;;
32748;SDS011;19119;52.474;13.710;2022-07-22T07:33:49;10.50;;;7.90;;
32748;SDS011;19119;52.474;13.710;2022-07-22T07:36:15;14.60;;;7.90;;
32748;SDS011;19119;52.474;13.710;2022-07-22T07:38:40;9.30;;;7.70;;
32748;SDS011;19119;52.474;13.710;2022-07-22T07:41:06;8.63;;;6.88;;
32748;SDS011;19119;52.474;13.710;2022-07-22T07:43:32;9.13;;;7.13;;
32748;SDS011;19119;52.474;13.710;2022-07-22T07:45:58;8.50;;;6.25;;
32748;SDS011;19119;52.474;13.710;2022-07-22T07:48:23;9.57;;;7.35;;
32748;SDS011;19119;52.474;13.710;2022-07-22T07:50:49;7.93;;;7.03;;
32748;SDS011;19119;52.474;13.710;2022-07-22T07:53:15;8.25;;;6.38;;
32748;SDS011;19119;52.474;13.710;2022-07-22T07:55:41;11.75;;;7.43;;
32748;SDS011;19119;52.474;13.710;2022-07-22T07:58:07;8.98;;;6.45;;
32748;SDS011;19119;52.474;13.710;2022-07-22T08:00:33;7.50;;;6.38;;
32748;SDS011;19119;52.474;13.710;2022-07-22T08:02:59;9.55;;;7.20;;
32748;SDS011;19119;52.474;13.710;2022-07-22T08:05:26;8.18;;;6.13;;
32748;SDS011;19119;52.474;13.710;2022-07-22T08:07:52;6.53;;;5.50;;
32748;SDS011;19119;52.474;13.710;2022-07-22T08:10:18;11.00;;;6.50;;
32748;SDS011;19119;52.474;13.710;2022-07-22T08:12:44;9.60;;;6.70;;
32748;SDS011;19119;52.474;13.710;2022-07-22T08:15:09;8.07;;;5.22;;
32748;SDS011;19119;52.474;13.710;2022-07-22T08:17:35;8.00;;;6.50;;
32748;SDS011;19119;52.474;13.710;2022-07-22T08:20:01;7.45;;;5.40;;
32748;SDS011;19119;52.474;13.710;2022-07-22T08:22:27;6.25;;;5.30;;
32748;SDS011;19119;52.474;13.710;2022-07-22T08:24:53;7.50;;;5.50;;
32748;SDS011;19119;52.474;13.710;2022-07-22T08:27:19;6.05;;;4.90;;
32748;SDS011;19119;52.474;13.710;2022-07-22T08:29:45;6.65;;;5.32;;
32748;SDS011;19119;52.474;13.710;2022-07-22T08:32:10;7.30;;;5.10;;
32748;SDS011;19119;52.474;13.710;2022-07-22T08:34:36;5.38;;;4.72;;
32748;SDS011;19119;52.474;13.710;2022-07-22T08:37:02;4.60;;;4.15;;
32748;SDS011;19119;52.474;13.710;2022-07-22T08:39:27;5.93;;;4.82;;
32748;SDS011;19119;52.474;13.710;2022-07-22T08:41:53;6.78;;;4.25;;
32748;SDS011;19119;52.474;13.710;2022-07-22T08:44:19;8.23;;;5.38;;
32748;SDS011;19119;52.474;13.710;2022-07-22T08:46:45;6.40;;;4.57;;
32748;SDS011;19119;52.474;13.710;2022-07-22T08:49:15;5.68;;;4.43;;
32748;SDS011;19119;52.474;13.710;2022-07-22T08:51:41;5.72;;;4.50;;
32748;SDS011;19119;52.474;13.710;2022-07-22T08:54:07;5.45;;;4.53;;
32748;SDS011;19119;52.474;13.710;2022-07-22T08:56:32;5.22;;;4.30;;
32748;SDS011;19119;52.474;13.710;2022-07-22T08:58:58;5.85;;;4.50;;
32748;SDS011;19119;52.474;13.710;2022-07-22T09:01:24;5.00;;;4.10;;
32748;SDS011;19119;52.474;13.710;2022-07-22T09:03:53;5.63;;;4.15;;
32748;SDS011;19119;52.474;13.710;2022-07-22T09:06:22;6.45;;;3.88;;
32748;SDS011;19119;52.474;13.710;2022-07-22T09:08:56;4.57;;;4.00;;
32748;SDS011;19119;52.474;13.710;2022-07-22T09:11:28;9.27;;;4.35;;
32748;SDS011;19119;52.474;13.710;2022-07-22T09:13:55;6.97;;;3.55;;
32748;SDS011;19119;52.474;13.710;2022-07-22T09:19:03;6.10;;;3.55;;
32748;SDS011;19119;52.474;13.710;2022-07-22T09:21:29;3.92;;;3.55;;
32748;SDS011;19119;52.474;13.710;2022-07-22T09:23:55;3.85;;;3.45;;
32748;SDS011;19119;52.474;13.710;2022-07-22T09:26:34;4.97;;;3.22;;
32748;SDS011;19119;52.474;13.710;2022-07-22T09:29:04;5.15;;;3.47;;
32748;SDS011;19119;52.474;13.710;2022-07-22T09:31:35;6.47;;;4.35;;
32748;SDS011;19119;52.474;13.710;2022-07-22T09:34:02;4.15;;;3.75;;
32748;SDS011;19119;52.474;13.710;2022-07-22T09:36:29;4.20;;;3.72;;
32748;SDS011;19119;52.474;13.710;2022-07-22T09:38:55;5.57;;;3.80;;
32748;SDS011;19119;52.474;13.710;2022-07-22T09:41:21;5.18;;;3.25;;
32748;SDS011;19119;52.474;13.710;2022-07-22T09:43:47;4.28;;;3.20;;
32748;SDS011;19119;52.474;13.710;2022-07-22T09:46:13;4.50;;;3.40;;
32748;SDS011;19119;52.474;13.710;2022-07-22T09:48:39;8.18;;;3.88;;
32748;SDS011;19119;52.474;13.710;2022-07-22T09:51:05;4.55;;;3.90;;
32748;SDS011;19119;52.474;13.710;2022-07-22T09:53:31;8.82;;;3.92;;
32748;SDS011;19119;52.474;13.710;2022-07-22T09:56:02;4.80;;;3.45;;
32748;SDS011;19119;52.474;13.710;2022-07-22T09:58:29;3.95;;;3.55;;
32748;SDS011;19119;52.474;13.710;2022-07-22T10:00:59;9.57;;;3.67;;
32748;SDS011;19119;52.474;13.710;2022-07-22T10:03:29;5.30;;;3.85;;
32748;SDS011;19119;52.474;13.710;2022-07-22T10:05:56;5.05;;;4.03;;
32748;SDS011;19119;52.474;13.710;2022-07-22T10:08:23;7.57;;;3.42;;
32748;SDS011;19119;52.474;13.710;2022-07-22T10:10:50;3.90;;;3.40;;
32748;SDS011;19119;52.474;13.710;2022-07-22T10:13:18;3.60;;;3.28;;
32748;SDS011;19119;52.474;13.710;2022-07-22T10:15:44;4.57;;;3.53;;
32748;SDS011;19119;52.474;13.710;2022-07-22T10:18:15;6.80;;;3.78;;
32748;SDS011;19119;52.474;13.710;2022-07-22T10:20:42;6.60;;;3.60;;
32748;SDS011;19119;52.474;13.710;2022-07-22T10:23:08;4.72;;;3.25;;
32748;SDS011;19119;52.474;13.710;2022-07-22T10:28:20;6.68;;;3.75;;
32748;SDS011;19119;52.474;13.710;2022-07-22T10:30:46;3.90;;;3.50;;
32748;SDS011;19119;52.474;13.710;2022-07-22T10:33:16;5.43;;;3.65;;
32748;SDS011;19119;52.474;13.710;2022-07-22T10:38:27;5.95;;;3.20;;
32748;SDS011;19119;52.474;13.710;2022-07-22T10:41:01;6.53;;;3.72;;
32748;SDS011;19119;52.474;13.710;2022-07-22T10:43:31;4.30;;;3.17;;
32748;SDS011;19119;52.474;13.710;2022-07-22T10:46:12;5.50;;;4.28;;
32748;SDS011;19119;52.474;13.710;2022-07-22T10:56:21;3.65;;;3.10;;
32748;SDS011;19119;52.474;13.710;2022-07-22T10:58:51;6.55;;;3.03;;
32748;SDS011;19119;52.474;13.710;2022-07-22T11:01:23;4.90;;;2.75;;
32748;SDS011;19119;52.474;13.710;2022-07-22T11:03:54;3.45;;;2.90;;
32748;SDS011;19119;52.474;13.710;2022-07-22T11:06:22;3.20;;;2.90;;
32748;SDS011;19119;52.474;13.710;2022-07-22T11:08:54;4.70;;;2.67;;
32748;SDS011;19119;52.474;13.710;2022-07-22T11:11:33;4.53;;;2.28;;
32748;SDS011;19119;52.474;13.710;2022-07-22T11:14:03;4.20;;;2.42;;
32748;SDS011;19119;52.474;13.710;2022-07-22T11:16:47;2.22;;;1.85;;
32748;SDS011;19119;52.474;13.710;2022-07-22T11:19:14;2.30;;;1.85;;
32748;SDS011;19119;52.474;13.710;2022-07-22T11:21:48;2.25;;;1.75;;
32748;SDS011;19119;52.474;13.710;2022-07-22T11:24:18;5.15;;;2.03;;
32748;SDS011;19119;52.474;13.710;2022-07-22T11:26:48;2.72;;;2.08;;
32748;SDS011;19119;52.474;13.710;2022-07-22T11:29:17;2.13;;;1.92;;
32748;SDS011;19119;52.474;13.710;2022-07-22T11:31:43;2.67;;;1.98;;
32748;SDS011;19119;52.474;13.710;2022-07-22T11:34:10;2.33;;;2.05;;
32748;SDS011;19119;52.474;13.710;2022-07-22T11:36:38;3.72;;;1.98;;
32748;SDS011;19119;52.474;13.710;2022-07-22T11:39:08;2.47;;;2.05;;
32748;SDS011;19119;52.474;13.710;2022-07-22T11:41:35;5.63;;;2.20;;
32748;SDS011;19119;52.474;13.710;2022-07-22T11:44:01;2.63;;;2.30;;
32748;SDS011;19119;52.474;13.710;2022-07-22T11:46:28;3.00;;;1.92;;
32748;SDS011;19119;52.474;13.710;2022-07-22T11:48:59;2.58;;;2.20;;
32748;SDS011;19119;52.474;13.710;2022-07-22T11:51:29;6.65;;;2.50;;
32748;SDS011;19119;52.474;13.710;2022-07-22T11:53:55;7.10;;;2.00;;
32748;SDS011;19119;52.474;13.710;2022-07-22T11:56:22;4.50;;;2.15;;
32748;SDS011;19119;52.474;13.710;2022-07-22T11:58:48;2.83;;;2.40;;
32748;SDS011;19119;52.474;13.710;2022-07-22T12:01:16;2.78;;;2.30;;
32748;SDS011;19119;52.474;13.710;2022-07-22T12:03:48;3.50;;;3.05;;
32748;SDS011;19119;52.474;13.710;2022-07-22T12:06:17;3.40;;;2.78;;
32748;SDS011;19119;52.474;13.710;2022-07-22T12:08:45;4.65;;;2.83;;
32748;SDS011;19119;52.474;13.710;2022-07-22T12:11:26;4.03;;;2.60;;
32748;SDS011;19119;52.474;13.710;2022-07-22T12:13:52;4.03;;;3.35;;
32748;SDS011;19119;52.474;13.710;2022-07-22T12:18:58;2.78;;;2.30;;
32748;SDS011;19119;52.474;13.710;2022-07-22T12:21:26;2.97;;;2.67;;
32748;SDS011;19119;52.474;13.710;2022-07-22T12:24:00;3.08;;;2.78;;
32748;SDS011;19119;52.474;13.710;2022-07-22T12:31:48;3.03;;;2.72;;
32748;SDS011;19119;52.474;13.710;2022-07-22T12:34:15;3.42;;;2.80;;
32748;SDS011;19119;52.474;13.710;2022-07-22T12:36:43;3.33;;;3.03;;
32748;SDS011;19119;52.474;13.710;2022-07-22T12:39:14;3.42;;;2.75;;
32748;SDS011;19119;52.474;13.710;2022-07-22T12:41:50;3.80;;;3.10;;
32748;SDS011;19119;52.474;13.710;2022-07-22T12:44:18;30.73;;;4.13;;
32748;SDS011;19119;52.474;13.710;2022-07-22T12:46:45;5.18;;;3.20;;
32748;SDS011;19119;52.474;13.710;2022-07-22T12:49:17;4.75;;;3.35;;
32748;SDS011;19119;52.474;13.710;2022-07-22T12:54:29;4.22;;;3.10;;
32748;SDS011;19119;52.474;13.710;2022-07-22T12:56:55;6.00;;;3.38;;
32748;SDS011;19119;52.474;13.710;2022-07-22T12:59:21;4.45;;;3.00;;
32748;SDS011;19119;52.474;13.710;2022-07-22T13:01:46;3.65;;;3.00;;
32748;SDS011;19119;52.474;13.710;2022-07-22T13:04:13;3.13;;;2.83;;
32748;SDS011;19119;52.474;13.710;2022-07-22T13:06:39;4.85;;;3.15;;
32748;SDS011;19119;52.474;13.710;2022-07-22T13:09:05;4.25;;;2.70;;
32748;SDS011;19119;52.474;13.710;2022-07-22T13:11:31;4.95;;;3.03;;
32748;SDS011;19119;52.474;13.710;2022-07-22T13:13:56;3.42;;;3.13;;
32748;SDS011;19119;52.474;13.710;2022-07-22T13:16:22;3.08;;;2.50;;
32748;SDS011;19119;52.474;13.710;2022-07-22T13:18:49;3.67;;;2.80;;
32748;SDS011;19119;52.474;13.710;2022-07-22T13:21:15;2.97;;;2.50;;
32748;SDS011;19119;52.474;13.710;2022-07-22T13:23:41;4.63;;;2.70;;
32748;SDS011;19119;52.474;13.710;2022-07-22T13:26:06;3.33;;;2.80;;
32748;SDS011;19119;52.474;13.710;2022-07-22T13:28:32;4.55;;;2.70;;
32748;SDS011;19119;52.474;13.710;2022-07-22T13:30:58;3.65;;;2.60;;
32748;SDS011;19119;52.474;13.710;2022-07-22T13:33:23;4.78;;;2.88;;
32748;SDS011;19119;52.474;13.710;2022-07-22T13:35:49;4.47;;;2.72;;
32748;SDS011;19119;52.474;13.710;2022-07-22T13:38:14;3.53;;;2.65;;
32748;SDS011;19119;52.474;13.710;2022-07-22T13:40:42;4.32;;;3.13;;
32748;SDS011;19119;52.474;13.710;2022-07-22T13:43:17;5.32;;;2.85;;
32748;SDS011;19119;52.474;13.710;2022-07-22T13:45:43;3.10;;;2.80;;
32748;SDS011;19119;52.474;13.710;2022-07-22T13:48:09;3.65;;;2.70;;
32748;SDS011;19119;52.474;13.710;2022-07-22T13:50:34;2.65;;;2.00;;
32748;SDS011;19119;52.474;13.710;2022-07-22T13:53:00;4.05;;;2.22;;
32748;SDS011;19119;52.474;13.710;2022-07-22T13:55:25;4.57;;;2.70;;
32748;SDS011;19119;52.474;13.710;2022-07-22T13:57:51;4.40;;;2.50;;
32748;SDS011;19119;52.474;13.710;2022-07-22T14:00:17;3.50;;;2.20;;
32748;SDS011;19119;52.474;13.710;2022-07-22T14:02:43;2.92;;;2.40;;
32748;SDS011;19119;52.474;13.710;2022-07-22T14:05:09;8.43;;;2.10;;
32748;SDS011;19119;52.474;13.710;2022-07-22T14:07:35;2.72;;;2.50;;
32748;SDS011;19119;52.474;13.710;2022-07-22T14:10:02;5.05;;;2.42;;
32748;SDS011;19119;52.474;13.710;2022-07-22T14:12:28;2.33;;;2.13;;
32748;SDS011;19119;52.474;13.710;2022-07-22T14:14:53;2.53;;;2.20;;
32748;SDS011;19119;52.474;13.710;2022-07-22T14:17:19;2.72;;;2.20;;
32748;SDS011;19119;52.474;13.710;2022-07-22T14:19:44;2.38;;;2.00;;
32748;SDS011;19119;52.474;13.710;2022-07-22T14:22:10;3.10;;;1.67;;
32748;SDS011;19119;52.474;13.710;2022-07-22T14:24:35;3.63;;;1.98;;
32748;SDS011;19119;52.474;13.710;2022-07-22T14:27:01;2.35;;;1.90;;
32748;SDS011;19119;52.474;13.710;2022-07-22T14:29:26;2.97;;;1.77;;
32748;SDS011;19119;52.474;13.710;2022-07-22T14:31:52;2.60;;;1.80;;
32748;SDS011;19119;52.474;13.710;2022-07-22T14:34:18;2.85;;;2.10;;
32748;SDS011;19119;52.474;13.710;2022-07-22T14:36:43;3.53;;;1.80;;
32748;SDS011;19119;52.474;13.710;2022-07-22T14:39:09;3.75;;;1.88;;
32748;SDS011;19119;52.474;13.710;2022-07-22T14:41:34;3.55;;;1.90;;
32748;SDS011;19119;52.474;13.710;2022-07-22T14:44:00;2.75;;;1.75;;
32748;SDS011;19119;52.474;13.710;2022-07-22T14:46:25;2.70;;;1.80;;
32748;SDS011;19119;52.474;13.710;2022-07-22T14:48:51;7.13;;;1.63;;
32748;SDS011;19119;52.474;13.710;2022-07-22T14:51:19;2.30;;;1.48;;
32748;SDS011;19119;52.474;13.710;2022-07-22T14:53:45;3.42;;;1.83;;